sensor_id;sensor_type;location;lat;lon;timestamp;P1;durP1;ratioP1;P2;durP2;ratioP2
40807;SDS011;26523;52.504;13.498;2024-01-06T00:01:38;38.67;;;14.38;;
40807;SDS011;26523;52.504;13.498;2024-01-06T00:04:04;41.20;;;15.65;;
40807;SDS011;26523;52.504;13.498;2024-01-06T00:06:30;35.17;;;13.32;;
40807;SDS011;26523;52.504;13.498;2024-01-06T00:08:55;35.13;;;13.13;;
40807;SDS011;26523;52.504;13.498;2024-01-06T00:11:21;42.42;;;13.15;;
40807;SDS011;26523;52.504;13.498;2024-01-06T00:13:47;34.75;;;12.57;;
40807;SDS011;26523;52.504;13.498;2024-01-06T00:16:13;41.63;;;13.82;;
40807;SDS011;26523;52.504;13.498;2024-01-06T00:18:42;37.63;;;13.88;;
40807;SDS011;26523;52.504;13.498;2024-01-06T00:21:08;52.03;;;14.55;;
40807;SDS011;26523;52.504;13.498;2024-01-06T00:23:34;37.83;;;12.90;;
40807;SDS011;26523;52.504;13.498;2024-01-06T00:26:00;30.08;;;12.15;;
40807;SDS011;26523;52.504;13.498;2024-01-06T00:28:25;39.38;;;13.77;;
40807;SDS011;26523;52.504;13.498;2024-01-06T00:30:51;30.40;;;12.13;;
40807;SDS011;26523;52.504;13.498;2024-01-06T00:33:16;42.66;;;14.00;;
40807;SDS011;26523;52.504;13.498;2024-01-06T00:35:42;32.00;;;14.02;;
40807;SDS011;26523;52.504;13.498;2024-01-06T00:38:08;33.90;;;12.75;;
40807;SDS011;26523;52.504;13.498;2024-01-06T00:40:33;30.98;;;12.40;;
40807;SDS011;26523;52.504;13.498;2024-01-06T00:42:59;32.67;;;14.00;;
40807;SDS011;26523;52.504;13.498;2024-01-06T00:45:25;35.95;;;13.60;;
40807;SDS011;26523;52.504;13.498;2024-01-06T00:47:50;29.20;;;12.60;;
40807;SDS011;26523;52.504;13.498;2024-01-06T00:50:17;37.00;;;13.02;;
40807;SDS011;26523;52.504;13.498;2024-01-06T00:52:44;35.03;;;12.60;;
40807;SDS011;26523;52.504;13.498;2024-01-06T00:55:09;37.58;;;12.95;;
40807;SDS011;26523;52.504;13.498;2024-01-06T00:57:35;34.92;;;13.38;;
40807;SDS011;26523;52.504;13.498;2024-01-06T01:00:01;30.88;;;13.27;;
40807;SDS011;26523;52.504;13.498;2024-01-06T01:02:28;29.70;;;12.05;;
40807;SDS011;26523;52.504;13.498;2024-01-06T01:04:54;38.88;;;13.80;;
40807;SDS011;26523;52.504;13.498;2024-01-06T01:07:20;30.23;;;11.40;;
40807;SDS011;26523;52.504;13.498;2024-01-06T01:09:45;39.63;;;14.35;;
40807;SDS011;26523;52.504;13.498;2024-01-06T01:12:11;33.35;;;12.23;;
40807;SDS011;26523;52.504;13.498;2024-01-06T01:14:37;30.75;;;11.70;;
40807;SDS011;26523;52.504;13.498;2024-01-06T01:17:02;38.03;;;12.00;;
40807;SDS011;26523;52.504;13.498;2024-01-06T01:19:29;36.90;;;12.40;;
40807;SDS011;26523;52.504;13.498;2024-01-06T01:21:55;29.52;;;11.93;;
40807;SDS011;26523;52.504;13.498;2024-01-06T01:24:21;37.30;;;13.40;;
40807;SDS011;26523;52.504;13.498;2024-01-06T01:26:47;30.10;;;12.00;;
40807;SDS011;26523;52.504;13.498;2024-01-06T01:29:13;41.08;;;13.27;;
40807;SDS011;26523;52.504;13.498;2024-01-06T01:31:38;36.55;;;12.73;;
40807;SDS011;26523;52.504;13.498;2024-01-06T01:34:04;34.45;;;12.15;;
40807;SDS011;26523;52.504;13.498;2024-01-06T01:36:30;31.63;;;11.30;;
40807;SDS011;26523;52.504;13.498;2024-01-06T01:38:55;33.22;;;12.18;;
40807;SDS011;26523;52.504;13.498;2024-01-06T01:41:21;34.15;;;12.45;;
40807;SDS011;26523;52.504;13.498;2024-01-06T01:43:46;26.88;;;11.90;;
40807;SDS011;26523;52.504;13.498;2024-01-06T01:46:12;34.03;;;12.27;;
40807;SDS011;26523;52.504;13.498;2024-01-06T01:48:38;30.83;;;13.10;;
40807;SDS011;26523;52.504;13.498;2024-01-06T01:51:04;31.83;;;11.60;;
40807;SDS011;26523;52.504;13.498;2024-01-06T01:53:31;35.80;;;12.98;;
40807;SDS011;26523;52.504;13.498;2024-01-06T01:55:57;36.85;;;12.35;;
40807;SDS011;26523;52.504;13.498;2024-01-06T01:58:23;35.75;;;13.77;;
40807;SDS011;26523;52.504;13.498;2024-01-06T02:00:49;32.38;;;11.70;;
40807;SDS011;26523;52.504;13.498;2024-01-06T02:03:15;32.33;;;12.13;;
40807;SDS011;26523;52.504;13.498;2024-01-06T02:05:41;41.63;;;12.10;;
40807;SDS011;26523;52.504;13.498;2024-01-06T02:08:07;30.13;;;11.35;;
40807;SDS011;26523;52.504;13.498;2024-01-06T02:10:33;31.92;;;11.23;;
40807;SDS011;26523;52.504;13.498;2024-01-06T02:13:07;37.88;;;12.43;;
40807;SDS011;26523;52.504;13.498;2024-01-06T02:15:36;37.40;;;12.82;;
40807;SDS011;26523;52.504;13.498;2024-01-06T02:18:02;29.23;;;10.32;;
40807;SDS011;26523;52.504;13.498;2024-01-06T02:20:29;34.25;;;12.93;;
40807;SDS011;26523;52.504;13.498;2024-01-06T02:22:56;28.95;;;11.82;;
40807;SDS011;26523;52.504;13.498;2024-01-06T02:25:23;27.55;;;11.02;;
40807;SDS011;26523;52.504;13.498;2024-01-06T02:27:49;31.80;;;12.10;;
40807;SDS011;26523;52.504;13.498;2024-01-06T02:30:15;34.90;;;12.18;;
40807;SDS011;26523;52.504;13.498;2024-01-06T02:32:40;32.78;;;11.20;;
40807;SDS011;26523;52.504;13.498;2024-01-06T02:35:06;28.25;;;11.93;;
40807;SDS011;26523;52.504;13.498;2024-01-06T02:37:32;31.65;;;12.32;;
40807;SDS011;26523;52.504;13.498;2024-01-06T02:39:58;38.03;;;13.15;;
40807;SDS011;26523;52.504;13.498;2024-01-06T02:42:23;33.50;;;11.00;;
40807;SDS011;26523;52.504;13.498;2024-01-06T02:44:50;33.80;;;12.15;;
40807;SDS011;26523;52.504;13.498;2024-01-06T02:47:16;33.78;;;12.57;;
40807;SDS011;26523;52.504;13.498;2024-01-06T02:49:42;36.17;;;11.77;;
40807;SDS011;26523;52.504;13.498;2024-01-06T02:52:07;34.63;;;10.88;;
40807;SDS011;26523;52.504;13.498;2024-01-06T02:54:33;37.58;;;12.95;;
40807;SDS011;26523;52.504;13.498;2024-01-06T02:56:59;33.80;;;12.13;;
40807;SDS011;26523;52.504;13.498;2024-01-06T02:59:24;29.35;;;12.45;;
40807;SDS011;26523;52.504;13.498;2024-01-06T03:01:50;33.95;;;12.25;;
40807;SDS011;26523;52.504;13.498;2024-01-06T03:04:15;27.38;;;9.27;;
40807;SDS011;26523;52.504;13.498;2024-01-06T03:06:41;33.17;;;11.25;;
40807;SDS011;26523;52.504;13.498;2024-01-06T03:09:07;37.15;;;12.05;;
40807;SDS011;26523;52.504;13.498;2024-01-06T03:11:32;34.00;;;12.55;;
40807;SDS011;26523;52.504;13.498;2024-01-06T03:13:58;37.05;;;12.45;;
40807;SDS011;26523;52.504;13.498;2024-01-06T03:16:23;35.78;;;12.40;;
40807;SDS011;26523;52.504;13.498;2024-01-06T03:18:49;29.58;;;11.65;;
40807;SDS011;26523;52.504;13.498;2024-01-06T03:21:18;29.92;;;9.93;;
40807;SDS011;26523;52.504;13.498;2024-01-06T03:23:44;34.67;;;12.15;;
40807;SDS011;26523;52.504;13.498;2024-01-06T03:26:10;27.60;;;11.13;;
40807;SDS011;26523;52.504;13.498;2024-01-06T03:28:36;34.40;;;11.68;;
40807;SDS011;26523;52.504;13.498;2024-01-06T03:31:01;28.50;;;10.45;;
40807;SDS011;26523;52.504;13.498;2024-01-06T03:33:27;30.88;;;11.18;;
40807;SDS011;26523;52.504;13.498;2024-01-06T03:35:53;27.73;;;10.15;;
40807;SDS011;26523;52.504;13.498;2024-01-06T03:38:18;31.90;;;11.70;;
40807;SDS011;26523;52.504;13.498;2024-01-06T03:40:44;29.63;;;11.50;;
40807;SDS011;26523;52.504;13.498;2024-01-06T03:43:09;35.20;;;11.90;;
40807;SDS011;26523;52.504;13.498;2024-01-06T03:45:35;33.83;;;11.95;;
40807;SDS011;26523;52.504;13.498;2024-01-06T03:48:01;34.75;;;11.52;;
40807;SDS011;26523;52.504;13.498;2024-01-06T03:50:26;37.70;;;12.38;;
40807;SDS011;26523;52.504;13.498;2024-01-06T03:52:52;33.08;;;10.10;;
40807;SDS011;26523;52.504;13.498;2024-01-06T03:55:18;26.13;;;9.98;;
40807;SDS011;26523;52.504;13.498;2024-01-06T03:57:43;34.83;;;11.82;;
40807;SDS011;26523;52.504;13.498;2024-01-06T04:00:09;37.28;;;12.32;;
40807;SDS011;26523;52.504;13.498;2024-01-06T04:02:35;35.67;;;11.95;;
40807;SDS011;26523;52.504;13.498;2024-01-06T04:05:01;41.53;;;12.20;;
40807;SDS011;26523;52.504;13.498;2024-01-06T04:07:26;33.72;;;12.57;;
40807;SDS011;26523;52.504;13.498;2024-01-06T04:09:52;34.47;;;13.05;;
40807;SDS011;26523;52.504;13.498;2024-01-06T04:12:17;36.70;;;12.18;;
40807;SDS011;26523;52.504;13.498;2024-01-06T04:14:43;37.22;;;12.13;;
40807;SDS011;26523;52.504;13.498;2024-01-06T04:17:09;31.70;;;13.00;;
40807;SDS011;26523;52.504;13.498;2024-01-06T04:19:34;43.13;;;12.30;;
40807;SDS011;26523;52.504;13.498;2024-01-06T04:22:00;35.20;;;11.65;;
40807;SDS011;26523;52.504;13.498;2024-01-06T04:24:25;32.47;;;12.38;;
40807;SDS011;26523;52.504;13.498;2024-01-06T04:26:51;38.05;;;10.90;;
40807;SDS011;26523;52.504;13.498;2024-01-06T04:29:17;32.33;;;12.52;;
40807;SDS011;26523;52.504;13.498;2024-01-06T04:31:42;31.08;;;10.82;;
40807;SDS011;26523;52.504;13.498;2024-01-06T04:34:08;45.72;;;14.43;;
40807;SDS011;26523;52.504;13.498;2024-01-06T04:36:33;34.55;;;12.73;;
40807;SDS011;26523;52.504;13.498;2024-01-06T04:38:59;41.90;;;13.27;;
40807;SDS011;26523;52.504;13.498;2024-01-06T04:41:24;30.20;;;11.98;;
40807;SDS011;26523;52.504;13.498;2024-01-06T04:43:50;32.10;;;12.00;;
40807;SDS011;26523;52.504;13.498;2024-01-06T04:46:16;42.28;;;12.45;;
40807;SDS011;26523;52.504;13.498;2024-01-06T04:48:41;42.03;;;13.77;;
40807;SDS011;26523;52.504;13.498;2024-01-06T04:51:08;41.42;;;13.38;;
40807;SDS011;26523;52.504;13.498;2024-01-06T04:53:35;35.88;;;12.45;;
40807;SDS011;26523;52.504;13.498;2024-01-06T04:56:01;41.67;;;14.32;;
40807;SDS011;26523;52.504;13.498;2024-01-06T04:58:27;35.67;;;12.15;;
40807;SDS011;26523;52.504;13.498;2024-01-06T05:00:52;37.20;;;12.52;;
40807;SDS011;26523;52.504;13.498;2024-01-06T05:03:18;38.80;;;12.88;;
40807;SDS011;26523;52.504;13.498;2024-01-06T05:05:44;41.33;;;12.88;;
40807;SDS011;26523;52.504;13.498;2024-01-06T05:08:09;32.72;;;12.85;;
40807;SDS011;26523;52.504;13.498;2024-01-06T05:10:35;49.08;;;15.07;;
40807;SDS011;26523;52.504;13.498;2024-01-06T05:13:01;39.85;;;13.70;;
40807;SDS011;26523;52.504;13.498;2024-01-06T05:15:26;42.28;;;14.75;;
40807;SDS011;26523;52.504;13.498;2024-01-06T05:17:52;47.45;;;13.75;;
40807;SDS011;26523;52.504;13.498;2024-01-06T05:20:17;35.90;;;12.73;;
40807;SDS011;26523;52.504;13.498;2024-01-06T05:22:43;39.15;;;14.00;;
40807;SDS011;26523;52.504;13.498;2024-01-06T05:25:09;43.25;;;14.55;;
40807;SDS011;26523;52.504;13.498;2024-01-06T05:27:35;38.47;;;13.88;;
40807;SDS011;26523;52.504;13.498;2024-01-06T05:30:00;44.67;;;14.02;;
40807;SDS011;26523;52.504;13.498;2024-01-06T05:32:26;39.70;;;13.18;;
40807;SDS011;26523;52.504;13.498;2024-01-06T05:34:52;35.70;;;13.90;;
40807;SDS011;26523;52.504;13.498;2024-01-06T05:37:17;35.17;;;13.93;;
40807;SDS011;26523;52.504;13.498;2024-01-06T05:39:43;38.92;;;13.80;;
40807;SDS011;26523;52.504;13.498;2024-01-06T05:42:09;38.58;;;13.88;;
40807;SDS011;26523;52.504;13.498;2024-01-06T05:44:37;38.70;;;12.45;;
40807;SDS011;26523;52.504;13.498;2024-01-06T05:47:03;34.83;;;12.63;;
40807;SDS011;26523;52.504;13.498;2024-01-06T05:49:29;33.35;;;11.30;;
40807;SDS011;26523;52.504;13.498;2024-01-06T05:51:54;44.95;;;14.25;;
40807;SDS011;26523;52.504;13.498;2024-01-06T05:54:20;40.28;;;12.52;;
40807;SDS011;26523;52.504;13.498;2024-01-06T05:56:45;31.38;;;12.27;;
40807;SDS011;26523;52.504;13.498;2024-01-06T05:59:11;38.40;;;13.63;;
40807;SDS011;26523;52.504;13.498;2024-01-06T06:01:37;42.42;;;13.55;;
40807;SDS011;26523;52.504;13.498;2024-01-06T06:04:02;39.83;;;13.65;;
40807;SDS011;26523;52.504;13.498;2024-01-06T06:06:28;41.10;;;13.88;;
40807;SDS011;26523;52.504;13.498;2024-01-06T06:08:54;63.83;;;15.77;;
40807;SDS011;26523;52.504;13.498;2024-01-06T06:11:21;40.72;;;15.43;;
40807;SDS011;26523;52.504;13.498;2024-01-06T06:13:46;45.80;;;14.27;;
40807;SDS011;26523;52.504;13.498;2024-01-06T06:16:12;45.45;;;14.55;;
40807;SDS011;26523;52.504;13.498;2024-01-06T06:18:38;46.22;;;14.20;;
40807;SDS011;26523;52.504;13.498;2024-01-06T06:21:04;45.20;;;14.43;;
40807;SDS011;26523;52.504;13.498;2024-01-06T06:23:31;38.50;;;12.60;;
40807;SDS011;26523;52.504;13.498;2024-01-06T06:25:57;38.17;;;13.60;;
40807;SDS011;26523;52.504;13.498;2024-01-06T06:28:22;36.30;;;12.95;;
40807;SDS011;26523;52.504;13.498;2024-01-06T06:30:48;37.17;;;13.95;;
40807;SDS011;26523;52.504;13.498;2024-01-06T06:33:14;33.83;;;13.65;;
40807;SDS011;26523;52.504;13.498;2024-01-06T06:35:40;45.78;;;13.55;;
40807;SDS011;26523;52.504;13.498;2024-01-06T06:38:05;32.50;;;11.65;;
40807;SDS011;26523;52.504;13.498;2024-01-06T06:40:31;44.63;;;14.38;;
40807;SDS011;26523;52.504;13.498;2024-01-06T06:42:57;38.20;;;12.30;;
40807;SDS011;26523;52.504;13.498;2024-01-06T06:45:22;44.35;;;13.65;;
40807;SDS011;26523;52.504;13.498;2024-01-06T06:47:49;49.72;;;13.00;;
40807;SDS011;26523;52.504;13.498;2024-01-06T06:50:18;49.30;;;13.68;;
40807;SDS011;26523;52.504;13.498;2024-01-06T06:52:46;33.72;;;12.63;;
40807;SDS011;26523;52.504;13.498;2024-01-06T06:55:12;43.80;;;13.38;;
40807;SDS011;26523;52.504;13.498;2024-01-06T06:57:37;41.00;;;12.13;;
40807;SDS011;26523;52.504;13.498;2024-01-06T07:00:04;52.40;;;14.30;;
40807;SDS011;26523;52.504;13.498;2024-01-06T07:02:32;33.90;;;11.30;;
40807;SDS011;26523;52.504;13.498;2024-01-06T07:04:58;46.35;;;13.20;;
40807;SDS011;26523;52.504;13.498;2024-01-06T07:07:24;25.95;;;11.30;;
40807;SDS011;26523;52.504;13.498;2024-01-06T07:09:49;45.40;;;12.30;;
40807;SDS011;26523;52.504;13.498;2024-01-06T07:12:15;39.70;;;11.10;;
40807;SDS011;26523;52.504;13.498;2024-01-06T07:14:40;42.97;;;13.70;;
40807;SDS011;26523;52.504;13.498;2024-01-06T07:17:06;36.45;;;11.63;;
40807;SDS011;26523;52.504;13.498;2024-01-06T07:19:34;31.33;;;12.23;;
40807;SDS011;26523;52.504;13.498;2024-01-06T07:21:59;34.90;;;14.05;;
40807;SDS011;26523;52.504;13.498;2024-01-06T07:24:25;37.28;;;12.65;;
40807;SDS011;26523;52.504;13.498;2024-01-06T07:26:51;45.78;;;13.38;;
40807;SDS011;26523;52.504;13.498;2024-01-06T07:29:17;40.45;;;12.73;;
40807;SDS011;26523;52.504;13.498;2024-01-06T07:31:43;41.28;;;13.90;;
40807;SDS011;26523;52.504;13.498;2024-01-06T07:34:09;42.90;;;13.52;;
40807;SDS011;26523;52.504;13.498;2024-01-06T07:36:35;47.80;;;14.55;;
40807;SDS011;26523;52.504;13.498;2024-01-06T07:39:01;40.28;;;13.93;;
40807;SDS011;26523;52.504;13.498;2024-01-06T07:41:27;41.92;;;13.68;;
40807;SDS011;26523;52.504;13.498;2024-01-06T07:43:55;52.45;;;13.25;;
40807;SDS011;26523;52.504;13.498;2024-01-06T07:46:21;44.10;;;14.00;;
40807;SDS011;26523;52.504;13.498;2024-01-06T07:48:47;45.20;;;13.95;;
40807;SDS011;26523;52.504;13.498;2024-01-06T07:51:12;45.10;;;13.77;;
40807;SDS011;26523;52.504;13.498;2024-01-06T07:53:38;43.65;;;13.73;;
40807;SDS011;26523;52.504;13.498;2024-01-06T07:56:04;46.00;;;14.00;;
40807;SDS011;26523;52.504;13.498;2024-01-06T07:58:29;47.03;;;14.68;;
40807;SDS011;26523;52.504;13.498;2024-01-06T08:00:55;44.20;;;13.25;;
40807;SDS011;26523;52.504;13.498;2024-01-06T08:03:20;41.55;;;14.07;;
40807;SDS011;26523;52.504;13.498;2024-01-06T08:05:46;47.97;;;13.30;;
40807;SDS011;26523;52.504;13.498;2024-01-06T08:08:12;46.33;;;13.50;;
40807;SDS011;26523;52.504;13.498;2024-01-06T08:10:41;45.85;;;15.35;;
40807;SDS011;26523;52.504;13.498;2024-01-06T08:13:07;47.67;;;13.88;;
40807;SDS011;26523;52.504;13.498;2024-01-06T08:15:33;43.20;;;14.27;;
40807;SDS011;26523;52.504;13.498;2024-01-06T08:17:59;45.28;;;13.00;;
40807;SDS011;26523;52.504;13.498;2024-01-06T08:20:24;48.17;;;15.38;;
40807;SDS011;26523;52.504;13.498;2024-01-06T08:22:51;44.67;;;13.95;;
40807;SDS011;26523;52.504;13.498;2024-01-06T08:25:17;44.75;;;14.02;;
40807;SDS011;26523;52.504;13.498;2024-01-06T08:27:43;42.50;;;12.95;;
40807;SDS011;26523;52.504;13.498;2024-01-06T08:30:09;34.35;;;13.00;;
40807;SDS011;26523;52.504;13.498;2024-01-06T08:32:35;48.53;;;14.00;;
40807;SDS011;26523;52.504;13.498;2024-01-06T08:35:02;44.85;;;13.40;;
40807;SDS011;26523;52.504;13.498;2024-01-06T08:37:28;41.80;;;14.80;;
40807;SDS011;26523;52.504;13.498;2024-01-06T08:39:54;45.45;;;13.82;;
40807;SDS011;26523;52.504;13.498;2024-01-06T08:42:20;36.38;;;12.30;;
40807;SDS011;26523;52.504;13.498;2024-01-06T08:44:46;45.13;;;13.40;;
40807;SDS011;26523;52.504;13.498;2024-01-06T08:47:12;54.70;;;12.50;;
40807;SDS011;26523;52.504;13.498;2024-01-06T08:49:38;48.80;;;15.40;;
40807;SDS011;26523;52.504;13.498;2024-01-06T08:52:03;41.97;;;13.65;;
40807;SDS011;26523;52.504;13.498;2024-01-06T08:54:30;41.47;;;13.85;;
40807;SDS011;26523;52.504;13.498;2024-01-06T08:56:57;50.35;;;13.77;;
40807;SDS011;26523;52.504;13.498;2024-01-06T08:59:23;44.90;;;14.55;;
40807;SDS011;26523;52.504;13.498;2024-01-06T09:01:49;34.38;;;11.75;;
40807;SDS011;26523;52.504;13.498;2024-01-06T09:04:14;40.55;;;15.75;;
40807;SDS011;26523;52.504;13.498;2024-01-06T09:06:40;44.15;;;14.85;;
40807;SDS011;26523;52.504;13.498;2024-01-06T09:09:07;47.38;;;14.05;;
40807;SDS011;26523;52.504;13.498;2024-01-06T09:11:33;45.70;;;13.20;;
40807;SDS011;26523;52.504;13.498;2024-01-06T09:13:59;44.17;;;13.45;;
40807;SDS011;26523;52.504;13.498;2024-01-06T09:16:25;37.25;;;13.25;;
40807;SDS011;26523;52.504;13.498;2024-01-06T09:18:51;40.38;;;13.57;;
40807;SDS011;26523;52.504;13.498;2024-01-06T09:21:17;40.78;;;13.25;;
40807;SDS011;26523;52.504;13.498;2024-01-06T09:23:43;36.95;;;12.38;;
40807;SDS011;26523;52.504;13.498;2024-01-06T09:26:08;39.70;;;13.55;;
40807;SDS011;26523;52.504;13.498;2024-01-06T09:28:34;33.00;;;12.07;;
40807;SDS011;26523;52.504;13.498;2024-01-06T09:31:00;49.03;;;15.25;;
40807;SDS011;26523;52.504;13.498;2024-01-06T09:33:25;41.78;;;14.15;;
40807;SDS011;26523;52.504;13.498;2024-01-06T09:35:51;42.95;;;14.30;;
40807;SDS011;26523;52.504;13.498;2024-01-06T09:38:17;34.97;;;13.30;;
40807;SDS011;26523;52.504;13.498;2024-01-06T09:40:44;43.35;;;14.48;;
40807;SDS011;26523;52.504;13.498;2024-01-06T09:43:10;49.00;;;14.02;;
40807;SDS011;26523;52.504;13.498;2024-01-06T09:45:36;44.42;;;13.93;;
40807;SDS011;26523;52.504;13.498;2024-01-06T09:48:07;36.10;;;11.75;;
40807;SDS011;26523;52.504;13.498;2024-01-06T09:50:41;38.35;;;13.02;;
40807;SDS011;26523;52.504;13.498;2024-01-06T09:53:10;28.10;;;11.88;;
40807;SDS011;26523;52.504;13.498;2024-01-06T09:55:36;41.42;;;13.20;;
40807;SDS011;26523;52.504;13.498;2024-01-06T09:58:03;44.22;;;14.00;;
40807;SDS011;26523;52.504;13.498;2024-01-06T10:00:30;44.30;;;15.52;;
40807;SDS011;26523;52.504;13.498;2024-01-06T10:02:56;33.92;;;13.48;;
40807;SDS011;26523;52.504;13.498;2024-01-06T10:05:23;43.78;;;14.70;;
40807;SDS011;26523;52.504;13.498;2024-01-06T10:07:49;33.05;;;12.95;;
40807;SDS011;26523;52.504;13.498;2024-01-06T10:10:15;41.42;;;13.60;;
40807;SDS011;26523;52.504;13.498;2024-01-06T10:12:41;46.42;;;13.65;;
40807;SDS011;26523;52.504;13.498;2024-01-06T10:15:08;37.17;;;13.57;;
40807;SDS011;26523;52.504;13.498;2024-01-06T10:17:40;34.63;;;13.00;;
40807;SDS011;26523;52.504;13.498;2024-01-06T10:20:10;30.67;;;11.98;;
40807;SDS011;26523;52.504;13.498;2024-01-06T10:22:37;30.60;;;11.57;;
40807;SDS011;26523;52.504;13.498;2024-01-06T10:25:05;33.25;;;12.55;;
40807;SDS011;26523;52.504;13.498;2024-01-06T10:27:35;41.28;;;11.48;;
40807;SDS011;26523;52.504;13.498;2024-01-06T10:30:02;32.92;;;12.70;;
40807;SDS011;26523;52.504;13.498;2024-01-06T10:32:31;46.17;;;14.43;;
40807;SDS011;26523;52.504;13.498;2024-01-06T10:34:58;29.52;;;12.43;;
40807;SDS011;26523;52.504;13.498;2024-01-06T10:37:28;35.53;;;12.70;;
40807;SDS011;26523;52.504;13.498;2024-01-06T10:40:05;30.98;;;13.80;;
40807;SDS011;26523;52.504;13.498;2024-01-06T10:42:31;28.67;;;12.75;;
40807;SDS011;26523;52.504;13.498;2024-01-06T10:44:57;34.15;;;12.32;;
40807;SDS011;26523;52.504;13.498;2024-01-06T10:47:24;40.92;;;12.45;;
40807;SDS011;26523;52.504;13.498;2024-01-06T10:49:51;35.25;;;12.30;;
40807;SDS011;26523;52.504;13.498;2024-01-06T10:52:20;32.97;;;12.32;;
40807;SDS011;26523;52.504;13.498;2024-01-06T10:54:48;33.25;;;11.52;;
40807;SDS011;26523;52.504;13.498;2024-01-06T10:57:16;32.30;;;11.52;;
40807;SDS011;26523;52.504;13.498;2024-01-06T10:59:44;37.80;;;12.52;;
40807;SDS011;26523;52.504;13.498;2024-01-06T11:02:15;43.67;;;13.13;;
40807;SDS011;26523;52.504;13.498;2024-01-06T11:04:50;35.45;;;12.38;;
40807;SDS011;26523;52.504;13.498;2024-01-06T11:07:20;35.38;;;12.10;;
40807;SDS011;26523;52.504;13.498;2024-01-06T11:09:58;36.08;;;12.27;;
40807;SDS011;26523;52.504;13.498;2024-01-06T11:12:32;27.60;;;11.43;;
40807;SDS011;26523;52.504;13.498;2024-01-06T11:14:58;35.25;;;12.35;;
40807;SDS011;26523;52.504;13.498;2024-01-06T11:20:20;28.85;;;11.07;;
40807;SDS011;26523;52.504;13.498;2024-01-06T11:22:47;34.63;;;11.73;;
40807;SDS011;26523;52.504;13.498;2024-01-06T11:25:14;40.47;;;13.68;;
40807;SDS011;26523;52.504;13.498;2024-01-06T11:27:42;33.25;;;12.43;;
40807;SDS011;26523;52.504;13.498;2024-01-06T11:30:21;35.58;;;13.35;;
40807;SDS011;26523;52.504;13.498;2024-01-06T11:32:55;29.33;;;11.30;;
40807;SDS011;26523;52.504;13.498;2024-01-06T11:35:24;31.67;;;12.38;;
40807;SDS011;26523;52.504;13.498;2024-01-06T11:37:54;36.92;;;12.23;;
40807;SDS011;26523;52.504;13.498;2024-01-06T11:40:40;29.65;;;11.85;;
40807;SDS011;26523;52.504;13.498;2024-01-06T11:45:37;30.58;;;11.63;;
40807;SDS011;26523;52.504;13.498;2024-01-06T11:48:06;27.27;;;12.40;;
40807;SDS011;26523;52.504;13.498;2024-01-06T11:50:34;26.70;;;12.05;;
40807;SDS011;26523;52.504;13.498;2024-01-06T11:53:04;33.75;;;11.00;;
40807;SDS011;26523;52.504;13.498;2024-01-06T11:55:30;34.78;;;11.93;;
40807;SDS011;26523;52.504;13.498;2024-01-06T11:57:59;37.60;;;12.40;;
40807;SDS011;26523;52.504;13.498;2024-01-06T12:00:29;27.40;;;10.05;;
40807;SDS011;26523;52.504;13.498;2024-01-06T12:02:56;32.33;;;11.65;;
40807;SDS011;26523;52.504;13.498;2024-01-06T12:05:24;33.00;;;11.75;;
40807;SDS011;26523;52.504;13.498;2024-01-06T12:07:58;31.42;;;11.73;;
40807;SDS011;26523;52.504;13.498;2024-01-06T12:10:26;26.20;;;10.77;;
40807;SDS011;26523;52.504;13.498;2024-01-06T12:13:04;36.05;;;11.18;;
40807;SDS011;26523;52.504;13.498;2024-01-06T12:15:33;26.08;;;9.70;;
40807;SDS011;26523;52.504;13.498;2024-01-06T12:18:02;32.58;;;11.50;;
40807;SDS011;26523;52.504;13.498;2024-01-06T12:20:31;27.02;;;11.27;;
40807;SDS011;26523;52.504;13.498;2024-01-06T12:22:57;31.02;;;11.00;;
40807;SDS011;26523;52.504;13.498;2024-01-06T12:25:24;27.73;;;10.93;;
40807;SDS011;26523;52.504;13.498;2024-01-06T12:27:51;26.63;;;9.63;;
40807;SDS011;26523;52.504;13.498;2024-01-06T12:30:19;26.88;;;10.63;;
40807;SDS011;26523;52.504;13.498;2024-01-06T12:32:46;36.47;;;11.85;;
40807;SDS011;26523;52.504;13.498;2024-01-06T12:35:18;31.42;;;10.68;;
40807;SDS011;26523;52.504;13.498;2024-01-06T12:37:45;34.72;;;12.15;;
40807;SDS011;26523;52.504;13.498;2024-01-06T12:40:12;25.27;;;11.23;;
40807;SDS011;26523;52.504;13.498;2024-01-06T12:42:38;29.70;;;9.77;;
40807;SDS011;26523;52.504;13.498;2024-01-06T12:45:05;29.17;;;11.07;;
40807;SDS011;26523;52.504;13.498;2024-01-06T12:47:33;28.45;;;12.35;;
40807;SDS011;26523;52.504;13.498;2024-01-06T12:49:59;39.95;;;11.43;;
40807;SDS011;26523;52.504;13.498;2024-01-06T12:52:27;33.53;;;11.32;;
40807;SDS011;26523;52.504;13.498;2024-01-06T12:54:54;29.83;;;11.02;;
40807;SDS011;26523;52.504;13.498;2024-01-06T12:57:20;33.85;;;10.75;;
40807;SDS011;26523;52.504;13.498;2024-01-06T12:59:45;32.70;;;11.35;;
40807;SDS011;26523;52.504;13.498;2024-01-06T13:02:11;28.35;;;10.85;;
40807;SDS011;26523;52.504;13.498;2024-01-06T13:04:37;33.60;;;11.38;;
40807;SDS011;26523;52.504;13.498;2024-01-06T13:07:02;23.38;;;10.90;;
40807;SDS011;26523;52.504;13.498;2024-01-06T13:09:28;25.42;;;9.65;;
40807;SDS011;26523;52.504;13.498;2024-01-06T13:11:54;29.88;;;11.40;;
40807;SDS011;26523;52.504;13.498;2024-01-06T13:14:21;32.47;;;11.05;;
40807;SDS011;26523;52.504;13.498;2024-01-06T13:16:46;31.25;;;9.35;;
40807;SDS011;26523;52.504;13.498;2024-01-06T13:19:12;34.67;;;9.98;;
40807;SDS011;26523;52.504;13.498;2024-01-06T13:21:39;29.92;;;10.25;;
40807;SDS011;26523;52.504;13.498;2024-01-06T13:24:06;30.25;;;9.70;;
40807;SDS011;26523;52.504;13.498;2024-01-06T13:26:32;28.67;;;10.15;;
40807;SDS011;26523;52.504;13.498;2024-01-06T13:28:57;23.92;;;9.52;;
40807;SDS011;26523;52.504;13.498;2024-01-06T13:31:24;28.40;;;10.10;;
40807;SDS011;26523;52.504;13.498;2024-01-06T13:33:49;31.88;;;10.70;;
40807;SDS011;26523;52.504;13.498;2024-01-06T13:36:17;26.25;;;9.57;;
40807;SDS011;26523;52.504;13.498;2024-01-06T13:38:45;30.05;;;10.18;;
40807;SDS011;26523;52.504;13.498;2024-01-06T13:41:11;28.33;;;9.63;;
40807;SDS011;26523;52.504;13.498;2024-01-06T13:43:36;26.40;;;8.93;;
40807;SDS011;26523;52.504;13.498;2024-01-06T13:46:02;41.50;;;10.55;;
40807;SDS011;26523;52.504;13.498;2024-01-06T13:48:28;22.30;;;9.75;;
40807;SDS011;26523;52.504;13.498;2024-01-06T13:50:55;23.50;;;8.52;;
40807;SDS011;26523;52.504;13.498;2024-01-06T13:53:22;33.83;;;10.90;;
40807;SDS011;26523;52.504;13.498;2024-01-06T13:55:47;19.80;;;8.00;;
40807;SDS011;26523;52.504;13.498;2024-01-06T13:58:15;22.60;;;9.07;;
40807;SDS011;26523;52.504;13.498;2024-01-06T14:00:42;31.20;;;9.98;;
40807;SDS011;26523;52.504;13.498;2024-01-06T14:03:09;22.48;;;8.63;;
40807;SDS011;26523;52.504;13.498;2024-01-06T14:05:35;25.23;;;9.48;;
40807;SDS011;26523;52.504;13.498;2024-01-06T14:08:01;24.85;;;9.40;;
40807;SDS011;26523;52.504;13.498;2024-01-06T14:10:26;26.33;;;10.30;;